sensor_id;sensor_type;location;lat;lon;timestamp;P1;durP1;ratioP1;P2;durP2;ratioP2
15340;SDS011;7770;52.158;5.372;2023-04-15T00:02:21;12.77;;;9.63;;
15340;SDS011;7770;52.158;5.372;2023-04-15T00:05:07;13.70;;;9.90;;
15340;SDS011;7770;52.158;5.372;2023-04-15T00:07:54;11.73;;;9.30;;
15340;SDS011;7770;52.158;5.372;2023-04-15T00:10:40;11.90;;;9.60;;
15340;SDS011;7770;52.158;5.372;2023-04-15T00:13:28;12.70;;;10.20;;
15340;SDS011;7770;52.158;5.372;2023-04-15T00:16:14;12.33;;;9.73;;
15340;SDS011;7770;52.158;5.372;2023-04-15T00:19:00;13.90;;;10.13;;
15340;SDS011;7770;52.158;5.372;2023-04-15T00:21:46;13.00;;;9.97;;
15340;SDS011;7770;52.158;5.372;2023-04-15T00:24:33;11.10;;;9.70;;
15340;SDS011;7770;52.158;5.372;2023-04-15T00:27:19;12.83;;;9.73;;
15340;SDS011;7770;52.158;5.372;2023-04-15T00:30:05;12.23;;;9.33;;
15340;SDS011;7770;52.158;5.372;2023-04-15T00:32:52;12.40;;;8.93;;
15340;SDS011;7770;52.158;5.372;2023-04-15T00:35:38;11.37;;;8.90;;
15340;SDS011;7770;52.158;5.372;2023-04-15T00:38:24;11.83;;;9.27;;
15340;SDS011;7770;52.158;5.372;2023-04-15T00:41:10;12.13;;;8.43;;
15340;SDS011;7770;52.158;5.372;2023-04-15T00:43:57;12.53;;;8.93;;
15340;SDS011;7770;52.158;5.372;2023-04-15T00:46:43;15.00;;;9.20;;
15340;SDS011;7770;52.158;5.372;2023-04-15T00:49:31;11.30;;;9.43;;
15340;SDS011;7770;52.158;5.372;2023-04-15T00:52:17;12.10;;;9.40;;
15340;SDS011;7770;52.158;5.372;2023-04-15T00:55:03;13.03;;;10.00;;
15340;SDS011;7770;52.158;5.372;2023-04-15T00:57:51;11.23;;;9.57;;
15340;SDS011;7770;52.158;5.372;2023-04-15T01:00:37;14.13;;;9.60;;
15340;SDS011;7770;52.158;5.372;2023-04-15T01:03:23;11.57;;;9.87;;
15340;SDS011;7770;52.158;5.372;2023-04-15T01:06:09;10.87;;;9.43;;
15340;SDS011;7770;52.158;5.372;2023-04-15T01:08:56;17.53;;;10.50;;
15340;SDS011;7770;52.158;5.372;2023-04-15T01:11:42;12.90;;;9.57;;
15340;SDS011;7770;52.158;5.372;2023-04-15T01:14:29;15.53;;;10.43;;
15340;SDS011;7770;52.158;5.372;2023-04-15T01:17:16;13.10;;;10.13;;
15340;SDS011;7770;52.158;5.372;2023-04-15T01:20:02;16.60;;;11.27;;
15340;SDS011;7770;52.158;5.372;2023-04-15T01:22:49;14.87;;;10.50;;
15340;SDS011;7770;52.158;5.372;2023-04-15T01:25:35;12.53;;;10.33;;
15340;SDS011;7770;52.158;5.372;2023-04-15T01:28:22;13.30;;;9.73;;
15340;SDS011;7770;52.158;5.372;2023-04-15T01:31:09;12.10;;;9.80;;
15340;SDS011;7770;52.158;5.372;2023-04-15T01:33:58;10.47;;;9.13;;
15340;SDS011;7770;52.158;5.372;2023-04-15T01:36:44;9.20;;;7.70;;
15340;SDS011;7770;52.158;5.372;2023-04-15T01:39:30;13.80;;;8.60;;
15340;SDS011;7770;52.158;5.372;2023-04-15T01:42:16;14.77;;;9.10;;
15340;SDS011;7770;52.158;5.372;2023-04-15T01:45:02;13.97;;;9.20;;
15340;SDS011;7770;52.158;5.372;2023-04-15T01:47:49;12.60;;;9.17;;
15340;SDS011;7770;52.158;5.372;2023-04-15T01:50:35;11.67;;;9.57;;
15340;SDS011;7770;52.158;5.372;2023-04-15T01:53:22;11.73;;;9.43;;
15340;SDS011;7770;52.158;5.372;2023-04-15T01:56:10;10.97;;;9.13;;
15340;SDS011;7770;52.158;5.372;2023-04-15T01:58:56;13.97;;;9.50;;
15340;SDS011;7770;52.158;5.372;2023-04-15T02:01:42;10.47;;;8.63;;
15340;SDS011;7770;52.158;5.372;2023-04-15T02:04:29;10.10;;;9.03;;
15340;SDS011;7770;52.158;5.372;2023-04-15T02:07:16;12.90;;;9.67;;
15340;SDS011;7770;52.158;5.372;2023-04-15T02:10:02;12.43;;;9.07;;
15340;SDS011;7770;52.158;5.372;2023-04-15T02:12:48;13.23;;;9.67;;
15340;SDS011;7770;52.158;5.372;2023-04-15T02:15:34;13.33;;;9.70;;
15340;SDS011;7770;52.158;5.372;2023-04-15T02:18:20;12.77;;;9.70;;
15340;SDS011;7770;52.158;5.372;2023-04-15T02:21:06;12.63;;;9.53;;
15340;SDS011;7770;52.158;5.372;2023-04-15T02:23:52;11.60;;;9.50;;
15340;SDS011;7770;52.158;5.372;2023-04-15T02:26:38;11.90;;;9.67;;
15340;SDS011;7770;52.158;5.372;2023-04-15T02:29:24;12.87;;;9.20;;
15340;SDS011;7770;52.158;5.372;2023-04-15T02:32:10;10.70;;;9.60;;
15340;SDS011;7770;52.158;5.372;2023-04-15T02:35:07;14.63;;;9.57;;
15340;SDS011;7770;52.158;5.372;2023-04-15T02:37:53;13.23;;;10.23;;
15340;SDS011;7770;52.158;5.372;2023-04-15T02:40:39;11.60;;;9.80;;
15340;SDS011;7770;52.158;5.372;2023-04-15T02:43:25;11.43;;;9.83;;
15340;SDS011;7770;52.158;5.372;2023-04-15T02:46:11;11.60;;;9.60;;
15340;SDS011;7770;52.158;5.372;2023-04-15T02:48:58;11.37;;;9.57;;
15340;SDS011;7770;52.158;5.372;2023-04-15T02:51:45;11.47;;;10.10;;
15340;SDS011;7770;52.158;5.372;2023-04-15T02:54:33;14.20;;;10.37;;
15340;SDS011;7770;52.158;5.372;2023-04-15T02:57:19;12.60;;;10.10;;
15340;SDS011;7770;52.158;5.372;2023-04-15T03:00:07;14.13;;;10.07;;
15340;SDS011;7770;52.158;5.372;2023-04-15T03:03:00;11.13;;;9.80;;
15340;SDS011;7770;52.158;5.372;2023-04-15T03:05:48;11.93;;;9.63;;
15340;SDS011;7770;52.158;5.372;2023-04-15T03:08:34;12.17;;;9.57;;
15340;SDS011;7770;52.158;5.372;2023-04-15T03:11:21;15.17;;;9.97;;
15340;SDS011;7770;52.158;5.372;2023-04-15T03:14:07;11.47;;;10.23;;
15340;SDS011;7770;52.158;5.372;2023-04-15T03:16:53;12.47;;;10.40;;
15340;SDS011;7770;52.158;5.372;2023-04-15T03:19:39;14.93;;;10.30;;
15340;SDS011;7770;52.158;5.372;2023-04-15T03:22:25;14.23;;;10.60;;
15340;SDS011;7770;52.158;5.372;2023-04-15T03:25:11;15.07;;;11.73;;
15340;SDS011;7770;52.158;5.372;2023-04-15T03:27:58;13.93;;;11.43;;
15340;SDS011;7770;52.158;5.372;2023-04-15T03:30:44;11.87;;;10.33;;
15340;SDS011;7770;52.158;5.372;2023-04-15T03:33:30;11.77;;;9.83;;
15340;SDS011;7770;52.158;5.372;2023-04-15T03:36:16;13.17;;;10.57;;
15340;SDS011;7770;52.158;5.372;2023-04-15T03:39:02;13.47;;;11.13;;
15340;SDS011;7770;52.158;5.372;2023-04-15T03:41:48;13.80;;;10.93;;
15340;SDS011;7770;52.158;5.372;2023-04-15T03:44:35;13.97;;;10.70;;
15340;SDS011;7770;52.158;5.372;2023-04-15T03:47:21;13.23;;;11.17;;
15340;SDS011;7770;52.158;5.372;2023-04-15T03:50:07;12.40;;;10.43;;
15340;SDS011;7770;52.158;5.372;2023-04-15T03:52:54;14.40;;;11.50;;
15340;SDS011;7770;52.158;5.372;2023-04-15T03:55:40;13.50;;;10.73;;
15340;SDS011;7770;52.158;5.372;2023-04-15T03:58:26;14.30;;;11.23;;
15340;SDS011;7770;52.158;5.372;2023-04-15T04:01:12;14.43;;;11.63;;
15340;SDS011;7770;52.158;5.372;2023-04-15T04:03:59;14.57;;;11.10;;
15340;SDS011;7770;52.158;5.372;2023-04-15T04:06:45;16.90;;;12.07;;
15340;SDS011;7770;52.158;5.372;2023-04-15T04:09:31;14.27;;;11.50;;
15340;SDS011;7770;52.158;5.372;2023-04-15T04:12:17;13.57;;;11.37;;
15340;SDS011;7770;52.158;5.372;2023-04-15T04:15:03;13.70;;;11.63;;
15340;SDS011;7770;52.158;5.372;2023-04-15T04:17:50;16.00;;;12.20;;
15340;SDS011;7770;52.158;5.372;2023-04-15T04:20:36;15.03;;;12.20;;
15340;SDS011;7770;52.158;5.372;2023-04-15T04:23:22;16.43;;;11.60;;
15340;SDS011;7770;52.158;5.372;2023-04-15T04:26:08;18.67;;;12.20;;
15340;SDS011;7770;52.158;5.372;2023-04-15T04:28:54;15.23;;;12.20;;
15340;SDS011;7770;52.158;5.372;2023-04-15T04:31:40;17.00;;;13.40;;
15340;SDS011;7770;52.158;5.372;2023-04-15T04:34:26;17.30;;;12.70;;
15340;SDS011;7770;52.158;5.372;2023-04-15T04:37:12;16.73;;;12.47;;
15340;SDS011;7770;52.158;5.372;2023-04-15T04:39:58;15.77;;;12.60;;
15340;SDS011;7770;52.158;5.372;2023-04-15T04:42:44;14.93;;;12.33;;
15340;SDS011;7770;52.158;5.372;2023-04-15T04:45:30;15.57;;;12.50;;
15340;SDS011;7770;52.158;5.372;2023-04-15T04:48:16;17.67;;;13.20;;
15340;SDS011;7770;52.158;5.372;2023-04-15T04:51:02;15.87;;;12.90;;
15340;SDS011;7770;52.158;5.372;2023-04-15T04:53:49;18.60;;;14.30;;
15340;SDS011;7770;52.158;5.372;2023-04-15T04:56:35;17.00;;;13.80;;
15340;SDS011;7770;52.158;5.372;2023-04-15T04:59:23;16.03;;;13.63;;
15340;SDS011;7770;52.158;5.372;2023-04-15T05:02:09;16.07;;;13.77;;
15340;SDS011;7770;52.158;5.372;2023-04-15T05:04:55;19.77;;;14.77;;
15340;SDS011;7770;52.158;5.372;2023-04-15T05:07:41;17.17;;;13.90;;
15340;SDS011;7770;52.158;5.372;2023-04-15T05:10:27;17.63;;;15.10;;
15340;SDS011;7770;52.158;5.372;2023-04-15T05:13:13;19.50;;;14.07;;
15340;SDS011;7770;52.158;5.372;2023-04-15T05:15:59;17.10;;;14.13;;
15340;SDS011;7770;52.158;5.372;2023-04-15T05:18:45;17.53;;;14.20;;
15340;SDS011;7770;52.158;5.372;2023-04-15T05:21:31;17.37;;;14.47;;
15340;SDS011;7770;52.158;5.372;2023-04-15T05:24:17;18.83;;;14.23;;
15340;SDS011;7770;52.158;5.372;2023-04-15T05:27:03;18.40;;;13.93;;
15340;SDS011;7770;52.158;5.372;2023-04-15T05:29:49;17.67;;;13.33;;
15340;SDS011;7770;52.158;5.372;2023-04-15T05:32:35;16.03;;;12.87;;
15340;SDS011;7770;52.158;5.372;2023-04-15T05:35:21;15.17;;;12.90;;
15340;SDS011;7770;52.158;5.372;2023-04-15T05:38:07;15.33;;;12.67;;
15340;SDS011;7770;52.158;5.372;2023-04-15T05:40:54;15.23;;;12.60;;
15340;SDS011;7770;52.158;5.372;2023-04-15T05:43:40;15.23;;;12.37;;
15340;SDS011;7770;52.158;5.372;2023-04-15T05:46:26;13.93;;;11.67;;
15340;SDS011;7770;52.158;5.372;2023-04-15T05:49:12;14.73;;;11.73;;
15340;SDS011;7770;52.158;5.372;2023-04-15T05:51:58;13.40;;;11.33;;
15340;SDS011;7770;52.158;5.372;2023-04-15T05:54:45;14.77;;;12.07;;
15340;SDS011;7770;52.158;5.372;2023-04-15T05:57:31;13.50;;;11.83;;
15340;SDS011;7770;52.158;5.372;2023-04-15T06:00:17;16.00;;;12.27;;
15340;SDS011;7770;52.158;5.372;2023-04-15T06:03:03;15.23;;;12.40;;
15340;SDS011;7770;52.158;5.372;2023-04-15T06:05:50;15.53;;;12.23;;
15340;SDS011;7770;52.158;5.372;2023-04-15T06:08:36;14.73;;;11.83;;
15340;SDS011;7770;52.158;5.372;2023-04-15T06:11:22;14.10;;;12.23;;
15340;SDS011;7770;52.158;5.372;2023-04-15T06:14:08;18.53;;;13.20;;
15340;SDS011;7770;52.158;5.372;2023-04-15T06:16:54;19.50;;;13.93;;
15340;SDS011;7770;52.158;5.372;2023-04-15T06:19:41;16.80;;;12.17;;
15340;SDS011;7770;52.158;5.372;2023-04-15T06:22:27;16.90;;;12.90;;
15340;SDS011;7770;52.158;5.372;2023-04-15T06:25:13;16.57;;;13.37;;
15340;SDS011;7770;52.158;5.372;2023-04-15T06:27:59;14.73;;;12.87;;
15340;SDS011;7770;52.158;5.372;2023-04-15T06:30:45;14.47;;;12.67;;
15340;SDS011;7770;52.158;5.372;2023-04-15T06:33:31;14.50;;;11.80;;
15340;SDS011;7770;52.158;5.372;2023-04-15T06:36:17;12.53;;;11.13;;
15340;SDS011;7770;52.158;5.372;2023-04-15T06:39:04;14.43;;;12.00;;
15340;SDS011;7770;52.158;5.372;2023-04-15T06:41:50;13.20;;;11.80;;
15340;SDS011;7770;52.158;5.372;2023-04-15T06:44:36;14.70;;;12.43;;
15340;SDS011;7770;52.158;5.372;2023-04-15T06:47:23;16.00;;;11.73;;
15340;SDS011;7770;52.158;5.372;2023-04-15T06:50:09;15.80;;;12.33;;
15340;SDS011;7770;52.158;5.372;2023-04-15T06:52:55;14.83;;;12.20;;
15340;SDS011;7770;52.158;5.372;2023-04-15T06:55:41;14.07;;;12.60;;
15340;SDS011;7770;52.158;5.372;2023-04-15T06:58:27;12.60;;;11.40;;
15340;SDS011;7770;52.158;5.372;2023-04-15T07:01:13;13.03;;;11.73;;
15340;SDS011;7770;52.158;5.372;2023-04-15T07:03:59;13.77;;;12.27;;
15340;SDS011;7770;52.158;5.372;2023-04-15T07:06:46;13.13;;;11.73;;
15340;SDS011;7770;52.158;5.372;2023-04-15T07:09:32;13.00;;;11.70;;
15340;SDS011;7770;52.158;5.372;2023-04-15T07:12:18;13.97;;;12.47;;
15340;SDS011;7770;52.158;5.372;2023-04-15T07:15:05;11.57;;;10.37;;
15340;SDS011;7770;52.158;5.372;2023-04-15T07:17:51;12.63;;;11.23;;
15340;SDS011;7770;52.158;5.372;2023-04-15T07:20:37;12.80;;;11.50;;
15340;SDS011;7770;52.158;5.372;2023-04-15T07:23:24;13.23;;;11.80;;
15340;SDS011;7770;52.158;5.372;2023-04-15T07:26:10;13.73;;;12.33;;
15340;SDS011;7770;52.158;5.372;2023-04-15T07:28:56;12.63;;;11.37;;
15340;SDS011;7770;52.158;5.372;2023-04-15T07:31:42;12.40;;;11.10;;
15340;SDS011;7770;52.158;5.372;2023-04-15T07:34:28;12.40;;;11.10;;
15340;SDS011;7770;52.158;5.372;2023-04-15T07:37:14;12.57;;;11.20;;
15340;SDS011;7770;52.158;5.372;2023-04-15T07:40:00;11.80;;;10.60;;
15340;SDS011;7770;52.158;5.372;2023-04-15T07:42:48;12.27;;;10.97;;
15340;SDS011;7770;52.158;5.372;2023-04-15T07:45:35;11.73;;;9.93;;
15340;SDS011;7770;52.158;5.372;2023-04-15T07:48:21;11.37;;;10.07;;
15340;SDS011;7770;52.158;5.372;2023-04-15T07:51:07;11.47;;;9.70;;
15340;SDS011;7770;52.158;5.372;2023-04-15T07:53:55;11.30;;;9.53;;
15340;SDS011;7770;52.158;5.372;2023-04-15T07:56:41;12.40;;;10.37;;
15340;SDS011;7770;52.158;5.372;2023-04-15T07:59:27;10.83;;;9.40;;
15340;SDS011;7770;52.158;5.372;2023-04-15T08:02:14;11.03;;;9.93;;
15340;SDS011;7770;52.158;5.372;2023-04-15T08:05:00;10.43;;;9.43;;
15340;SDS011;7770;52.158;5.372;2023-04-15T08:07:48;10.43;;;9.33;;
15340;SDS011;7770;52.158;5.372;2023-04-15T08:10:34;10.23;;;9.23;;
15340;SDS011;7770;52.158;5.372;2023-04-15T08:13:22;9.77;;;8.67;;
15340;SDS011;7770;52.158;5.372;2023-04-15T08:16:21;10.07;;;9.17;;
15340;SDS011;7770;52.158;5.372;2023-04-15T08:19:08;8.93;;;8.03;;
15340;SDS011;7770;52.158;5.372;2023-04-15T08:21:54;8.60;;;7.80;;
15340;SDS011;7770;52.158;5.372;2023-04-15T08:24:41;6.97;;;6.27;;
15340;SDS011;7770;52.158;5.372;2023-04-15T08:27:27;6.97;;;6.37;;
15340;SDS011;7770;52.158;5.372;2023-04-15T08:30:13;6.80;;;6.10;;
15340;SDS011;7770;52.158;5.372;2023-04-15T08:32:59;6.97;;;6.30;;
15340;SDS011;7770;52.158;5.372;2023-04-15T08:35:45;8.13;;;7.43;;
15340;SDS011;7770;52.158;5.372;2023-04-15T08:38:33;8.57;;;7.77;;
15340;SDS011;7770;52.158;5.372;2023-04-15T08:41:21;8.37;;;7.57;;
15340;SDS011;7770;52.158;5.372;2023-04-15T08:44:10;8.90;;;8.10;;
15340;SDS011;7770;52.158;5.372;2023-04-15T08:47:01;8.70;;;7.87;;
15340;SDS011;7770;52.158;5.372;2023-04-15T08:49:48;8.17;;;7.33;;
15340;SDS011;7770;52.158;5.372;2023-04-15T08:52:38;8.60;;;7.80;;
15340;SDS011;7770;52.158;5.372;2023-04-15T08:55:29;7.80;;;7.00;;
15340;SDS011;7770;52.158;5.372;2023-04-15T08:58:20;8.23;;;7.43;;
15340;SDS011;7770;52.158;5.372;2023-04-15T09:01:06;8.40;;;7.57;;
15340;SDS011;7770;52.158;5.372;2023-04-15T09:03:52;8.30;;;7.50;;
15340;SDS011;7770;52.158;5.372;2023-04-15T09:06:38;8.97;;;8.07;;
15340;SDS011;7770;52.158;5.372;2023-04-15T09:09:25;9.13;;;8.20;;
15340;SDS011;7770;52.158;5.372;2023-04-15T09:12:12;7.47;;;6.67;;
15340;SDS011;7770;52.158;5.372;2023-04-15T09:14:58;7.10;;;6.00;;
15340;SDS011;7770;52.158;5.372;2023-04-15T09:17:45;6.23;;;5.63;;
15340;SDS011;7770;52.158;5.372;2023-04-15T09:20:39;5.67;;;5.17;;
15340;SDS011;7770;52.158;5.372;2023-04-15T09:23:26;5.57;;;5.07;;
15340;SDS011;7770;52.158;5.372;2023-04-15T09:26:12;5.33;;;4.93;;
15340;SDS011;7770;52.158;5.372;2023-04-15T09:29:08;6.37;;;5.77;;
15340;SDS011;7770;52.158;5.372;2023-04-15T09:32:08;6.13;;;5.53;;
15340;SDS011;7770;52.158;5.372;2023-04-15T09:35:06;5.67;;;5.17;;
15340;SDS011;7770;52.158;5.372;2023-04-15T09:38:07;5.93;;;5.43;;
15340;SDS011;7770;52.158;5.372;2023-04-15T09:40:54;6.53;;;5.90;;
15340;SDS011;7770;52.158;5.372;2023-04-15T09:43:40;6.53;;;5.73;;
15340;SDS011;7770;52.158;5.372;2023-04-15T09:46:42;7.40;;;6.17;;
15340;SDS011;7770;52.158;5.372;2023-04-15T09:49:29;7.33;;;6.50;;
15340;SDS011;7770;52.158;5.372;2023-04-15T09:52:15;7.67;;;6.97;;
15340;SDS011;7770;52.158;5.372;2023-04-15T09:55:01;7.20;;;6.50;;
15340;SDS011;7770;52.158;5.372;2023-04-15T09:57:48;8.10;;;7.37;;
15340;SDS011;7770;52.158;5.372;2023-04-15T10:00:34;9.20;;;6.93;;
15340;SDS011;7770;52.158;5.372;2023-04-15T10:03:26;9.30;;;6.97;;
15340;SDS011;7770;52.158;5.372;2023-04-15T10:06:14;8.37;;;6.17;;
15340;SDS011;7770;52.158;5.372;2023-04-15T10:09:00;6.63;;;6.00;;
15340;SDS011;7770;52.158;5.372;2023-04-15T10:11:46;6.17;;;5.60;;
15340;SDS011;7770;52.158;5.372;2023-04-15T10:14:34;6.17;;;5.43;;
15340;SDS011;7770;52.158;5.372;2023-04-15T10:17:22;7.87;;;5.67;;
15340;SDS011;7770;52.158;5.372;2023-04-15T10:20:17;6.27;;;5.77;;
15340;SDS011;7770;52.158;5.372;2023-04-15T10:23:05;6.17;;;5.67;;
15340;SDS011;7770;52.158;5.372;2023-04-15T10:25:53;6.53;;;5.87;;
15340;SDS011;7770;52.158;5.372;2023-04-15T10:28:40;6.40;;;5.80;;
15340;SDS011;7770;52.158;5.372;2023-04-15T10:31:26;5.97;;;5.47;;
15340;SDS011;7770;52.158;5.372;2023-04-15T10:34:12;5.63;;;5.13;;
15340;SDS011;7770;52.158;5.372;2023-04-15T10:37:00;5.50;;;5.03;;
15340;SDS011;7770;52.158;5.372;2023-04-15T10:39:50;6.63;;;4.93;;
15340;SDS011;7770;52.158;5.372;2023-04-15T10:42:36;5.10;;;4.70;;
15340;SDS011;7770;52.158;5.372;2023-04-15T10:45:24;5.37;;;4.70;;
15340;SDS011;7770;52.158;5.372;2023-04-15T10:48:17;4.93;;;4.53;;
15340;SDS011;7770;52.158;5.372;2023-04-15T10:51:03;5.30;;;4.47;;
15340;SDS011;7770;52.158;5.372;2023-04-15T10:53:49;4.97;;;4.57;;
15340;SDS011;7770;52.158;5.372;2023-04-15T10:56:41;6.00;;;5.00;;
15340;SDS011;7770;52.158;5.372;2023-04-15T10:59:32;5.43;;;4.73;;
15340;SDS011;7770;52.158;5.372;2023-04-15T11:02:58;4.50;;;4.10;;
15340;SDS011;7770;52.158;5.372;2023-04-15T11:05:51;5.40;;;4.67;;
15340;SDS011;7770;52.158;5.372;2023-04-15T11:08:54;5.70;;;5.13;;
15340;SDS011;7770;52.158;5.372;2023-04-15T11:14:53;5.53;;;5.03;;
15340;SDS011;7770;52.158;5.372;2023-04-15T11:17:39;5.70;;;5.03;;
15340;SDS011;7770;52.158;5.372;2023-04-15T11:20:25;4.80;;;4.30;;
15340;SDS011;7770;52.158;5.372;2023-04-15T11:23:12;5.03;;;4.53;;
15340;SDS011;7770;52.158;5.372;2023-04-15T11:26:12;4.77;;;4.10;;
15340;SDS011;7770;52.158;5.372;2023-04-15T11:28:59;5.00;;;3.90;;
15340;SDS011;7770;52.158;5.372;2023-04-15T11:31:46;5.33;;;4.60;;
15340;SDS011;7770;52.158;5.372;2023-04-15T11:34:33;4.47;;;4.07;;
15340;SDS011;7770;52.158;5.372;2023-04-15T11:37:26;4.77;;;4.07;;
15340;SDS011;7770;52.158;5.372;2023-04-15T11:40:14;4.97;;;4.37;;
15340;SDS011;7770;52.158;5.372;2023-04-15T11:43:14;5.57;;;4.33;;
15340;SDS011;7770;52.158;5.372;2023-04-15T11:46:05;5.20;;;4.70;;
15340;SDS011;7770;52.158;5.372;2023-04-15T11:48:51;4.73;;;4.33;;
15340;SDS011;7770;52.158;5.372;2023-04-15T11:51:37;5.60;;;4.67;;
15340;SDS011;7770;52.158;5.372;2023-04-15T11:54:23;5.10;;;4.60;;
15340;SDS011;7770;52.158;5.372;2023-04-15T11:57:09;6.13;;;4.73;;
15340;SDS011;7770;52.158;5.372;2023-04-15T11:59:55;6.37;;;4.33;;
15340;SDS011;7770;52.158;5.372;2023-04-15T12:02:41;5.77;;;4.27;;
15340;SDS011;7770;52.158;5.372;2023-04-15T12:05:28;5.40;;;3.80;;
15340;SDS011;7770;52.158;5.372;2023-04-15T12:08:14;4.87;;;3.57;;
15340;SDS011;7770;52.158;5.372;2023-04-15T12:11:00;4.20;;;3.80;;
15340;SDS011;7770;52.158;5.372;2023-04-15T12:13:46;3.37;;;2.97;;
15340;SDS011;7770;52.158;5.372;2023-04-15T12:16:35;3.40;;;3.10;;
15340;SDS011;7770;52.158;5.372;2023-04-15T12:19:25;3.67;;;2.87;;
15340;SDS011;7770;52.158;5.372;2023-04-15T12:22:14;3.63;;;3.33;;
15340;SDS011;7770;52.158;5.372;2023-04-15T12:25:01;4.27;;;3.40;;
15340;SDS011;7770;52.158;5.372;2023-04-15T12:27:51;4.10;;;3.47;;
15340;SDS011;7770;52.158;5.372;2023-04-15T12:30:47;5.90;;;3.67;;
15340;SDS011;7770;52.158;5.372;2023-04-15T12:33:36;3.73;;;3.30;;
15340;SDS011;7770;52.158;5.372;2023-04-15T12:36:22;4.30;;;3.50;;
15340;SDS011;7770;52.158;5.372;2023-04-15T12:39:09;4.30;;;3.50;;
15340;SDS011;7770;52.158;5.372;2023-04-15T12:41:55;5.27;;;3.73;;
15340;SDS011;7770;52.158;5.372;2023-04-15T12:44:41;4.33;;;3.20;;
15340;SDS011;7770;52.158;5.372;2023-04-15T12:47:27;4.63;;;3.47;;
15340;SDS011;7770;52.158;5.372;2023-04-15T12:50:13;5.00;;;3.27;;
15340;SDS011;7770;52.158;5.372;2023-04-15T12:52:59;5.20;;;3.60;;
15340;SDS011;7770;52.158;5.372;2023-04-15T12:55:45;5.27;;;3.10;;
15340;SDS011;7770;52.158;5.372;2023-04-15T12:58:31;3.60;;;3.30;;
15340;SDS011;7770;52.158;5.372;2023-04-15T13:01:17;3.87;;;3.43;;
15340;SDS011;7770;52.158;5.372;2023-04-15T13:04:04;4.80;;;3.50;;
15340;SDS011;7770;52.158;5.372;2023-04-15T13:06:50;5.23;;;3.60;;
15340;SDS011;7770;52.158;5.372;2023-04-15T13:09:36;4.27;;;3.50;;
15340;SDS011;7770;52.158;5.372;2023-04-15T13:12:22;4.00;;;3.57;;
15340;SDS011;7770;52.158;5.372;2023-04-15T13:15:08;4.80;;;3.73;;
15340;SDS011;7770;52.158;5.372;2023-04-15T13:17:56;3.83;;;3.40;;
15340;SDS011;7770;52.158;5.372;2023-04-15T13:20:42;8.00;;;3.83;;
15340;SDS011;7770;52.158;5.372;2023-04-15T13:23:28;3.83;;;3.23;;
15340;SDS011;7770;52.158;5.372;2023-04-15T13:26:14;4.30;;;3.60;;
15340;SDS011;7770;52.158;5.372;2023-04-15T13:29:00;4.07;;;3.53;;
15340;SDS011;7770;52.158;5.372;2023-04-15T13:31:46;5.20;;;3.73;;
15340;SDS011;7770;52.158;5.372;2023-04-15T13:34:32;6.53;;;3.27;;
15340;SDS011;7770;52.158;5.372;2023-04-15T13:37:18;4.67;;;3.43;;
15340;SDS011;7770;52.158;5.372;2023-04-15T13:40:04;3.90;;;3.50;;
15340;SDS011;7770;52.158;5.372;2023-04-15T13:42:52;4.90;;;3.57;;
15340;SDS011;7770;52.158;5.372;2023-04-15T13:45:38;3.70;;;2.67;;
15340;SDS011;7770;52.158;5.372;2023-04-15T13:48:24;4.23;;;2.83;;
15340;SDS011;7770;52.158;5.372;2023-04-15T13:51:10;5.83;;;2.90;;
15340;SDS011;7770;52.158;5.372;2023-04-15T13:53:56;4.17;;;2.90;;
15340;SDS011;7770;52.158;5.372;2023-04-15T13:56:42;3.33;;;2.83;;
15340;SDS011;7770;52.158;5.372;2023-04-15T13:59:28;4.70;;;3.00;;
15340;SDS011;7770;52.158;5.372;2023-04-15T14:02:14;3.03;;;2.70;;
15340;SDS011;7770;52.158;5.372;2023-04-15T14:05:00;3.57;;;2.63;;
15340;SDS011;7770;52.158;5.372;2023-04-15T14:07:46;6.60;;;2.70;;
15340;SDS011;7770;52.158;5.372;2023-04-15T14:10:32;3.47;;;2.27;;
15340;SDS011;7770;52.158;5.372;2023-04-15T14:13:19;4.50;;;2.77;;
15340;SDS011;7770;52.158;5.372;2023-04-15T14:16:05;4.00;;;3.13;;
15340;SDS011;7770;52.158;5.372;2023-04-15T14:18:52;5.20;;;3.30;;
15340;SDS011;7770;52.158;5.372;2023-04-15T14:21:38;6.53;;;3.70;;
15340;SDS011;7770;52.158;5.372;2023-04-15T14:24:24;6.33;;;3.50;;
15340;SDS011;7770;52.158;5.372;2023-04-15T14:27:10;5.27;;;3.47;;
15340;SDS011;7770;52.158;5.372;2023-04-15T14:29:56;5.33;;;3.67;;
15340;SDS011;7770;52.158;5.372;2023-04-15T14:32:43;5.80;;;3.70;;
15340;SDS011;7770;52.158;5.372;2023-04-15T14:35:29;5.17;;;3.20;;
15340;SDS011;7770;52.158;5.372;2023-04-15T14:38:15;5.90;;;3.27;;
15340;SDS011;7770;52.158;5.372;2023-04-15T14:41:01;6.03;;;3.00;;
15340;SDS011;7770;52.158;5.372;2023-04-15T14:43:47;5.03;;;2.80;;
15340;SDS011;7770;52.158;5.372;2023-04-15T14:46:33;5.07;;;3.03;;
15340;SDS011;7770;52.158;5.372;2023-04-15T14:49:20;3.47;;;2.60;;
15340;SDS011;7770;52.158;5.372;2023-04-15T14:52:06;3.43;;;2.83;;
15340;SDS011;7770;52.158;5.372;2023-04-15T14:54:52;5.43;;;2.67;;
15340;SDS011;7770;52.158;5.372;2023-04-15T14:57:38;6.77;;;2.60;;
15340;SDS011;7770;52.158;5.372;2023-04-15T15:00:25;5.10;;;2.43;;
15340;SDS011;7770;52.158;5.372;2023-04-15T15:03:11;4.87;;;2.57;;
15340;SDS011;7770;52.158;5.372;2023-04-15T15:05:58;3.60;;;2.40;;
15340;SDS011;7770;52.158;5.372;2023-04-15T15:08:44;7.23;;;2.30;;
15340;SDS011;7770;52.158;5.372;2023-04-15T15:11:30;5.53;;;2.30;;
15340;SDS011;7770;52.158;5.372;2023-04-15T15:14:16;4.40;;;2.33;;
15340;SDS011;7770;52.158;5.372;2023-04-15T15:17:02;6.27;;;3.10;;
15340;SDS011;7770;52.158;5.372;2023-04-15T15:19:48;7.77;;;3.87;;
15340;SDS011;7770;52.158;5.372;2023-04-15T15:22:35;6.23;;;2.33;;
15340;SDS011;7770;52.158;5.372;2023-04-15T15:25:21;5.13;;;2.57;;
15340;SDS011;7770;52.158;5.372;2023-04-15T15:28:07;5.60;;;2.50;;
15340;SDS011;7770;52.158;5.372;2023-04-15T15:30:53;7.43;;;2.40;;
15340;SDS011;7770;52.158;5.372;2023-04-15T15:33:39;6.27;;;2.37;;
15340;SDS011;7770;52.158;5.372;2023-04-15T15:36:25;5.50;;;2.60;;
15340;SDS011;7770;52.158;5.372;2023-04-15T15:39:11;6.17;;;2.77;;
15340;SDS011;7770;52.158;5.372;2023-04-15T15:41:57;7.50;;;3.30;;
15340;SDS011;7770;52.158;5.372;2023-04-15T15:44:43;8.63;;;3.93;;
15340;SDS011;7770;52.158;5.372;2023-04-15T15:47:29;5.23;;;2.60;;
15340;SDS011;7770;52.158;5.372;2023-04-15T15:50:16;5.00;;;2.50;;
15340;SDS011;7770;52.158;5.372;2023-04-15T15:53:02;8.97;;;3.57;;
15340;SDS011;7770;52.158;5.372;2023-04-15T15:55:48;8.30;;;3.00;;
15340;SDS011;7770;52.158;5.372;2023-04-15T15:58:34;7.90;;;2.93;;
15340;SDS011;7770;52.158;5.372;2023-04-15T16:01:20;7.83;;;3.47;;
15340;SDS011;7770;52.158;5.372;2023-04-15T16:04:06;6.90;;;3.47;;
15340;SDS011;7770;52.158;5.372;2023-04-15T16:06:52;9.47;;;3.67;;
15340;SDS011;7770;52.158;5.372;2023-04-15T16:09:38;9.60;;;3.97;;
15340;SDS011;7770;52.158;5.372;2023-04-15T16:12:25;11.53;;;3.80;;
15340;SDS011;7770;52.158;5.372;2023-04-15T16:15:11;6.13;;;3.07;;
15340;SDS011;7770;52.158;5.372;2023-04-15T16:17:57;5.97;;;2.80;;
15340;SDS011;7770;52.158;5.372;2023-04-15T16:20:43;6.37;;;3.30;;
15340;SDS011;7770;52.158;5.372;2023-04-15T16:23:30;8.53;;;3.20;;
15340;SDS011;7770;52.158;5.372;2023-04-15T16:26:16;5.23;;;2.70;;
15340;SDS011;7770;52.158;5.372;2023-04-15T16:29:02;5.60;;;2.30;;
15340;SDS011;7770;52.158;5.372;2023-04-15T16:31:48;5.27;;;2.60;;
15340;SDS011;7770;52.158;5.372;2023-04-15T16:34:35;8.83;;;2.70;;
15340;SDS011;7770;52.158;5.372;2023-04-15T16:37:23;5.67;;;2.40;;
15340;SDS011;7770;52.158;5.372;2023-04-15T16:40:09;4.83;;;2.13;;
15340;SDS011;7770;52.158;5.372;2023-04-15T16:42:56;6.13;;;2.83;;
15340;SDS011;7770;52.158;5.372;2023-04-15T16:45:42;5.00;;;2.23;;
15340;SDS011;7770;52.158;5.372;2023-04-15T16:48:29;4.60;;;2.13;;
15340;SDS011;7770;52.158;5.372;2023-04-15T16:51:15;7.67;;;2.67;;
15340;SDS011;7770;52.158;5.372;2023-04-15T16:54:01;6.13;;;3.30;;